sensor_id;sensor_type;location;lat;lon;timestamp;temperature;humidity
6429;DHT22;3247;48.946;10.220;2023-03-14T00:01:13;8.10;99.90
6429;DHT22;3247;48.946;10.220;2023-03-14T00:03:39;8.20;99.90
6429;DHT22;3247;48.946;10.220;2023-03-14T00:06:05;8.20;99.90
6429;DHT22;3247;48.946;10.220;2023-03-14T00:08:30;8.20;99.90
6429;DHT22;3247;48.946;10.220;2023-03-14T00:10:56;8.20;99.90
6429;DHT22;3247;48.946;10.220;2023-03-14T00:13:23;8.20;99.90
6429;DHT22;3247;48.946;10.220;2023-03-14T00:15:48;8.20;99.90
6429;DHT22;3247;48.946;10.220;2023-03-14T00:18:14;8.20;99.90
6429;DHT22;3247;48.946;10.220;2023-03-14T00:20:39;8.20;99.90
6429;DHT22;3247;48.946;10.220;2023-03-14T00:23:05;8.20;99.90
6429;DHT22;3247;48.946;10.220;2023-03-14T00:25:30;8.20;99.90
6429;DHT22;3247;48.946;10.220;2023-03-14T00:27:56;8.20;99.90
6429;DHT22;3247;48.946;10.220;2023-03-14T00:30:21;8.20;99.90
6429;DHT22;3247;48.946;10.220;2023-03-14T00:32:47;8.10;99.90
6429;DHT22;3247;48.946;10.220;2023-03-14T00:35:12;8.20;99.90
6429;DHT22;3247;48.946;10.220;2023-03-14T00:37:38;8.20;99.90
6429;DHT22;3247;48.946;10.220;2023-03-14T00:40:04;8.20;99.90
6429;DHT22;3247;48.946;10.220;2023-03-14T00:42:31;8.30;99.90
6429;DHT22;3247;48.946;10.220;2023-03-14T00:44:57;8.30;99.90
6429;DHT22;3247;48.946;10.220;2023-03-14T00:47:22;8.30;99.90
6429;DHT22;3247;48.946;10.220;2023-03-14T00:49:51;8.90;99.90
6429;DHT22;3247;48.946;10.220;2023-03-14T00:52:16;8.30;99.90
6429;DHT22;3247;48.946;10.220;2023-03-14T00:54:42;8.30;99.90
6429;DHT22;3247;48.946;10.220;2023-03-14T00:57:07;8.20;99.90
6429;DHT22;3247;48.946;10.220;2023-03-14T00:59:33;8.20;99.90
6429;DHT22;3247;48.946;10.220;2023-03-14T01:01:58;8.30;99.90
6429;DHT22;3247;48.946;10.220;2023-03-14T01:04:24;8.30;99.90
6429;DHT22;3247;48.946;10.220;2023-03-14T01:06:49;9.10;99.90
6429;DHT22;3247;48.946;10.220;2023-03-14T01:09:14;8.20;99.90
6429;DHT22;3247;48.946;10.220;2023-03-14T01:11:43;8.30;99.90
6429;DHT22;3247;48.946;10.220;2023-03-14T01:14:11;8.20;99.90
6429;DHT22;3247;48.946;10.220;2023-03-14T01:16:37;8.20;99.90
6429;DHT22;3247;48.946;10.220;2023-03-14T01:19:02;8.30;99.90
6429;DHT22;3247;48.946;10.220;2023-03-14T01:24:21;8.30;99.90
6429;DHT22;3247;48.946;10.220;2023-03-14T01:26:47;8.30;99.90
6429;DHT22;3247;48.946;10.220;2023-03-14T01:29:12;8.40;99.90
6429;DHT22;3247;48.946;10.220;2023-03-14T01:31:38;8.40;99.90
6429;DHT22;3247;48.946;10.220;2023-03-14T01:34:03;8.40;99.90
6429;DHT22;3247;48.946;10.220;2023-03-14T01:36:29;8.40;99.90
6429;DHT22;3247;48.946;10.220;2023-03-14T01:38:54;8.40;99.90
6429;DHT22;3247;48.946;10.220;2023-03-14T01:41:21;8.40;99.90
6429;DHT22;3247;48.946;10.220;2023-03-14T01:43:47;8.40;99.90
6429;DHT22;3247;48.946;10.220;2023-03-14T01:46:16;8.40;99.90
6429;DHT22;3247;48.946;10.220;2023-03-14T01:48:45;8.40;99.90
6429;DHT22;3247;48.946;10.220;2023-03-14T01:51:20;8.40;99.90
6429;DHT22;3247;48.946;10.220;2023-03-14T01:53:47;8.40;99.90
6429;DHT22;3247;48.946;10.220;2023-03-14T01:56:14;8.40;99.90
6429;DHT22;3247;48.946;10.220;2023-03-14T01:58:40;8.30;99.90
6429;DHT22;3247;48.946;10.220;2023-03-14T02:01:07;8.30;99.90
6429;DHT22;3247;48.946;10.220;2023-03-14T02:03:35;8.20;99.90
6429;DHT22;3247;48.946;10.220;2023-03-14T02:06:04;8.20;99.90
6429;DHT22;3247;48.946;10.220;2023-03-14T02:08:30;8.10;99.90
6429;DHT22;3247;48.946;10.220;2023-03-14T02:10:56;8.10;99.90
6429;DHT22;3247;48.946;10.220;2023-03-14T02:13:22;8.90;99.90
6429;DHT22;3247;48.946;10.220;2023-03-14T02:15:48;8.00;99.90
6429;DHT22;3247;48.946;10.220;2023-03-14T02:18:13;8.00;99.90
6429;DHT22;3247;48.946;10.220;2023-03-14T02:29:01;8.00;99.90
6429;DHT22;3247;48.946;10.220;2023-03-14T02:31:27;8.00;99.90
6429;DHT22;3247;48.946;10.220;2023-03-14T02:33:52;8.00;99.90
6429;DHT22;3247;48.946;10.220;2023-03-14T02:36:18;8.10;99.90
6429;DHT22;3247;48.946;10.220;2023-03-14T02:41:13;8.00;99.90
6429;DHT22;3247;48.946;10.220;2023-03-14T02:43:39;8.00;99.90
6429;DHT22;3247;48.946;10.220;2023-03-14T02:46:04;7.90;99.90
6429;DHT22;3247;48.946;10.220;2023-03-14T02:48:35;7.90;99.90
6429;DHT22;3247;48.946;10.220;2023-03-14T02:51:06;7.90;99.90
6429;DHT22;3247;48.946;10.220;2023-03-14T02:53:34;7.90;99.90
6429;DHT22;3247;48.946;10.220;2023-03-14T02:56:00;7.90;99.90
6429;DHT22;3247;48.946;10.220;2023-03-14T02:58:25;7.80;99.90
6429;DHT22;3247;48.946;10.220;2023-03-14T03:00:51;7.80;99.90
6429;DHT22;3247;48.946;10.220;2023-03-14T03:03:17;7.80;99.90
6429;DHT22;3247;48.946;10.220;2023-03-14T03:05:42;7.80;99.90
6429;DHT22;3247;48.946;10.220;2023-03-14T03:08:09;7.80;99.90
6429;DHT22;3247;48.946;10.220;2023-03-14T03:10:35;7.80;99.90
6429;DHT22;3247;48.946;10.220;2023-03-14T03:13:00;7.80;99.90
6429;DHT22;3247;48.946;10.220;2023-03-14T03:15:26;7.80;99.90
6429;DHT22;3247;48.946;10.220;2023-03-14T03:17:52;7.80;99.90
6429;DHT22;3247;48.946;10.220;2023-03-14T03:20:22;7.70;99.90
6429;DHT22;3247;48.946;10.220;2023-03-14T03:22:48;7.70;99.90
6429;DHT22;3247;48.946;10.220;2023-03-14T03:25:15;7.70;99.90
6429;DHT22;3247;48.946;10.220;2023-03-14T03:27:40;7.70;99.90
6429;DHT22;3247;48.946;10.220;2023-03-14T03:30:06;7.70;99.90
6429;DHT22;3247;48.946;10.220;2023-03-14T03:32:32;7.60;99.90
6429;DHT22;3247;48.946;10.220;2023-03-14T03:34:57;7.50;99.90
6429;DHT22;3247;48.946;10.220;2023-03-14T03:37:23;7.50;99.90
6429;DHT22;3247;48.946;10.220;2023-03-14T03:39:51;7.50;99.90
6429;DHT22;3247;48.946;10.220;2023-03-14T03:42:17;7.50;99.90
6429;DHT22;3247;48.946;10.220;2023-03-14T03:44:43;7.50;99.90
6429;DHT22;3247;48.946;10.220;2023-03-14T03:47:08;7.40;99.90
6429;DHT22;3247;48.946;10.220;2023-03-14T03:49:49;7.40;99.90
6429;DHT22;3247;48.946;10.220;2023-03-14T03:52:15;7.40;99.90
6429;DHT22;3247;48.946;10.220;2023-03-14T03:54:40;7.30;99.90
6429;DHT22;3247;48.946;10.220;2023-03-14T03:57:05;7.30;99.90
6429;DHT22;3247;48.946;10.220;2023-03-14T03:59:31;7.30;99.90
6429;DHT22;3247;48.946;10.220;2023-03-14T04:01:56;7.30;99.90
6429;DHT22;3247;48.946;10.220;2023-03-14T04:04:22;7.30;99.90
6429;DHT22;3247;48.946;10.220;2023-03-14T04:06:47;7.30;99.90
6429;DHT22;3247;48.946;10.220;2023-03-14T04:09:13;7.20;99.90
6429;DHT22;3247;48.946;10.220;2023-03-14T04:11:39;7.30;99.90
6429;DHT22;3247;48.946;10.220;2023-03-14T04:14:04;7.30;99.90
6429;DHT22;3247;48.946;10.220;2023-03-14T04:16:30;7.30;99.90
6429;DHT22;3247;48.946;10.220;2023-03-14T04:18:57;7.20;99.90
6429;DHT22;3247;48.946;10.220;2023-03-14T04:21:22;7.20;99.90
6429;DHT22;3247;48.946;10.220;2023-03-14T04:23:48;7.20;99.90
6429;DHT22;3247;48.946;10.220;2023-03-14T04:26:13;7.20;99.90
6429;DHT22;3247;48.946;10.220;2023-03-14T04:28:39;7.20;99.90
6429;DHT22;3247;48.946;10.220;2023-03-14T04:31:11;7.30;99.90
6429;DHT22;3247;48.946;10.220;2023-03-14T04:33:37;7.30;99.90
6429;DHT22;3247;48.946;10.220;2023-03-14T04:36:03;7.30;99.90
6429;DHT22;3247;48.946;10.220;2023-03-14T04:38:29;7.30;99.90
6429;DHT22;3247;48.946;10.220;2023-03-14T04:40:54;7.30;99.90
6429;DHT22;3247;48.946;10.220;2023-03-14T04:43:20;7.30;99.90
6429;DHT22;3247;48.946;10.220;2023-03-14T04:45:45;7.30;99.90
6429;DHT22;3247;48.946;10.220;2023-03-14T04:48:11;7.40;99.90
6429;DHT22;3247;48.946;10.220;2023-03-14T04:50:37;7.50;99.90
6429;DHT22;3247;48.946;10.220;2023-03-14T04:53:03;7.50;99.90
6429;DHT22;3247;48.946;10.220;2023-03-14T04:55:28;7.60;99.90
6429;DHT22;3247;48.946;10.220;2023-03-14T04:57:54;7.50;99.90
6429;DHT22;3247;48.946;10.220;2023-03-14T05:00:19;7.50;99.90
6429;DHT22;3247;48.946;10.220;2023-03-14T05:02:45;7.50;99.90
6429;DHT22;3247;48.946;10.220;2023-03-14T05:05:10;7.50;99.90
6429;DHT22;3247;48.946;10.220;2023-03-14T05:07:36;7.50;99.90
6429;DHT22;3247;48.946;10.220;2023-03-14T05:10:01;7.60;99.90
6429;DHT22;3247;48.946;10.220;2023-03-14T05:12:27;7.60;99.90
6429;DHT22;3247;48.946;10.220;2023-03-14T05:14:52;7.50;99.90
6429;DHT22;3247;48.946;10.220;2023-03-14T05:17:18;7.60;99.90
6429;DHT22;3247;48.946;10.220;2023-03-14T05:19:44;7.60;99.90
6429;DHT22;3247;48.946;10.220;2023-03-14T05:22:09;7.60;99.90
6429;DHT22;3247;48.946;10.220;2023-03-14T05:24:35;7.60;99.90
6429;DHT22;3247;48.946;10.220;2023-03-14T05:27:01;7.50;99.90
6429;DHT22;3247;48.946;10.220;2023-03-14T05:29:26;7.50;99.90
6429;DHT22;3247;48.946;10.220;2023-03-14T05:31:51;7.50;99.90
6429;DHT22;3247;48.946;10.220;2023-03-14T05:34:17;7.50;99.90
6429;DHT22;3247;48.946;10.220;2023-03-14T05:36:42;7.50;99.90
6429;DHT22;3247;48.946;10.220;2023-03-14T05:39:08;7.50;99.90
6429;DHT22;3247;48.946;10.220;2023-03-14T05:41:33;7.50;99.90
6429;DHT22;3247;48.946;10.220;2023-03-14T05:43:59;7.50;99.90
6429;DHT22;3247;48.946;10.220;2023-03-14T05:46:24;7.40;99.90
6429;DHT22;3247;48.946;10.220;2023-03-14T05:48:50;7.40;99.90
6429;DHT22;3247;48.946;10.220;2023-03-14T05:51:31;7.40;99.90
6429;DHT22;3247;48.946;10.220;2023-03-14T05:53:56;7.40;99.90
6429;DHT22;3247;48.946;10.220;2023-03-14T05:56:22;7.30;99.90
6429;DHT22;3247;48.946;10.220;2023-03-14T05:58:47;7.30;99.90
6429;DHT22;3247;48.946;10.220;2023-03-14T06:01:12;7.30;99.90
6429;DHT22;3247;48.946;10.220;2023-03-14T06:03:38;7.30;99.90
6429;DHT22;3247;48.946;10.220;2023-03-14T06:06:04;7.20;99.90
6429;DHT22;3247;48.946;10.220;2023-03-14T06:08:29;7.20;99.90
6429;DHT22;3247;48.946;10.220;2023-03-14T06:10:56;7.10;99.90
6429;DHT22;3247;48.946;10.220;2023-03-14T06:13:21;7.10;99.90
6429;DHT22;3247;48.946;10.220;2023-03-14T06:15:47;7.10;99.90
6429;DHT22;3247;48.946;10.220;2023-03-14T06:18:12;7.10;99.90
6429;DHT22;3247;48.946;10.220;2023-03-14T06:20:44;7.80;99.90
6429;DHT22;3247;48.946;10.220;2023-03-14T06:23:10;7.10;99.90
6429;DHT22;3247;48.946;10.220;2023-03-14T06:25:35;7.10;99.90
6429;DHT22;3247;48.946;10.220;2023-03-14T06:28:01;7.20;99.90
6429;DHT22;3247;48.946;10.220;2023-03-14T06:30:27;7.20;99.90
6429;DHT22;3247;48.946;10.220;2023-03-14T06:32:52;7.20;99.90
6429;DHT22;3247;48.946;10.220;2023-03-14T06:35:18;7.20;99.90
6429;DHT22;3247;48.946;10.220;2023-03-14T06:37:44;7.20;99.90
6429;DHT22;3247;48.946;10.220;2023-03-14T06:40:10;7.20;99.90
6429;DHT22;3247;48.946;10.220;2023-03-14T06:42:36;7.30;99.90
6429;DHT22;3247;48.946;10.220;2023-03-14T06:45:01;7.60;99.90
6429;DHT22;3247;48.946;10.220;2023-03-14T06:47:27;7.40;99.90
6429;DHT22;3247;48.946;10.220;2023-03-14T06:49:52;7.40;99.90
6429;DHT22;3247;48.946;10.220;2023-03-14T06:52:18;7.60;99.90
6429;DHT22;3247;48.946;10.220;2023-03-14T06:54:43;7.70;99.90
6429;DHT22;3247;48.946;10.220;2023-03-14T06:57:09;7.80;99.90
6429;DHT22;3247;48.946;10.220;2023-03-14T06:59:34;7.90;99.90
6429;DHT22;3247;48.946;10.220;2023-03-14T07:02:00;8.10;99.90
6429;DHT22;3247;48.946;10.220;2023-03-14T07:04:25;8.20;99.90
6429;DHT22;3247;48.946;10.220;2023-03-14T07:06:51;8.20;99.90
6429;DHT22;3247;48.946;10.220;2023-03-14T07:09:16;8.40;99.90
6429;DHT22;3247;48.946;10.220;2023-03-14T07:11:45;8.40;99.90
6429;DHT22;3247;48.946;10.220;2023-03-14T07:14:10;8.60;99.90
6429;DHT22;3247;48.946;10.220;2023-03-14T07:16:36;8.70;99.90
6429;DHT22;3247;48.946;10.220;2023-03-14T07:19:02;8.80;99.90
6429;DHT22;3247;48.946;10.220;2023-03-14T07:21:27;8.90;99.90
6429;DHT22;3247;48.946;10.220;2023-03-14T07:23:53;9.00;99.90
6429;DHT22;3247;48.946;10.220;2023-03-14T07:26:18;9.30;99.90
6429;DHT22;3247;48.946;10.220;2023-03-14T07:28:44;9.50;99.90
6429;DHT22;3247;48.946;10.220;2023-03-14T07:31:09;9.90;99.90
6429;DHT22;3247;48.946;10.220;2023-03-14T07:33:35;10.30;99.90
6429;DHT22;3247;48.946;10.220;2023-03-14T07:36:00;10.70;99.90
6429;DHT22;3247;48.946;10.220;2023-03-14T07:38:26;11.00;99.90
6429;DHT22;3247;48.946;10.220;2023-03-14T07:40:57;11.50;99.90
6429;DHT22;3247;48.946;10.220;2023-03-14T07:43:23;12.10;99.90
6429;DHT22;3247;48.946;10.220;2023-03-14T07:45:48;12.70;99.90
6429;DHT22;3247;48.946;10.220;2023-03-14T07:48:14;13.20;99.90
6429;DHT22;3247;48.946;10.220;2023-03-14T07:50:47;13.80;99.90
6429;DHT22;3247;48.946;10.220;2023-03-14T07:53:13;14.10;99.90
6429;DHT22;3247;48.946;10.220;2023-03-14T07:55:39;13.90;99.90
6429;DHT22;3247;48.946;10.220;2023-03-14T07:58:04;13.40;99.90
6429;DHT22;3247;48.946;10.220;2023-03-14T08:00:30;12.90;99.90
6429;DHT22;3247;48.946;10.220;2023-03-14T08:02:55;12.80;99.90
6429;DHT22;3247;48.946;10.220;2023-03-14T08:05:21;12.40;99.90
6429;DHT22;3247;48.946;10.220;2023-03-14T08:07:46;12.40;99.90
6429;DHT22;3247;48.946;10.220;2023-03-14T08:10:12;12.50;99.90
6429;DHT22;3247;48.946;10.220;2023-03-14T08:12:40;13.20;99.90
6429;DHT22;3247;48.946;10.220;2023-03-14T08:15:06;14.00;99.90
6429;DHT22;3247;48.946;10.220;2023-03-14T08:17:32;14.10;99.90
6429;DHT22;3247;48.946;10.220;2023-03-14T08:20:00;14.50;99.90
6429;DHT22;3247;48.946;10.220;2023-03-14T08:22:26;14.70;99.90
6429;DHT22;3247;48.946;10.220;2023-03-14T08:24:51;14.60;99.90
6429;DHT22;3247;48.946;10.220;2023-03-14T08:27:17;14.70;99.90
6429;DHT22;3247;48.946;10.220;2023-03-14T08:29:42;14.00;99.90
6429;DHT22;3247;48.946;10.220;2023-03-14T08:32:08;13.80;99.90
6429;DHT22;3247;48.946;10.220;2023-03-14T08:34:34;13.70;99.90
6429;DHT22;3247;48.946;10.220;2023-03-14T08:36:59;13.90;99.90
6429;DHT22;3247;48.946;10.220;2023-03-14T08:39:25;14.20;99.90
6429;DHT22;3247;48.946;10.220;2023-03-14T08:41:50;14.70;99.90
6429;DHT22;3247;48.946;10.220;2023-03-14T08:44:16;15.30;99.90
6429;DHT22;3247;48.946;10.220;2023-03-14T08:46:41;16.20;99.90
6429;DHT22;3247;48.946;10.220;2023-03-14T08:49:07;16.90;99.90
6429;DHT22;3247;48.946;10.220;2023-03-14T08:51:32;17.00;99.90
6429;DHT22;3247;48.946;10.220;2023-03-14T08:53:58;17.10;99.90
6429;DHT22;3247;48.946;10.220;2023-03-14T08:56:23;16.90;99.90
6429;DHT22;3247;48.946;10.220;2023-03-14T08:58:49;16.80;99.90
6429;DHT22;3247;48.946;10.220;2023-03-14T09:01:14;17.00;99.90
6429;DHT22;3247;48.946;10.220;2023-03-14T09:03:40;16.80;99.90
6429;DHT22;3247;48.946;10.220;2023-03-14T09:06:09;16.90;99.90
6429;DHT22;3247;48.946;10.220;2023-03-14T09:08:35;17.10;99.90
6429;DHT22;3247;48.946;10.220;2023-03-14T09:11:01;17.80;99.90
6429;DHT22;3247;48.946;10.220;2023-03-14T09:13:26;17.70;99.90
6429;DHT22;3247;48.946;10.220;2023-03-14T09:15:52;17.80;99.90
6429;DHT22;3247;48.946;10.220;2023-03-14T09:18:18;17.30;99.90
6429;DHT22;3247;48.946;10.220;2023-03-14T09:20:49;17.20;99.90
6429;DHT22;3247;48.946;10.220;2023-03-14T09:23:14;17.00;99.90
6429;DHT22;3247;48.946;10.220;2023-03-14T09:25:40;16.60;99.90
6429;DHT22;3247;48.946;10.220;2023-03-14T09:28:05;16.10;99.90
6429;DHT22;3247;48.946;10.220;2023-03-14T09:30:31;15.50;99.90
6429;DHT22;3247;48.946;10.220;2023-03-14T09:32:56;15.20;99.90
6429;DHT22;3247;48.946;10.220;2023-03-14T09:35:23;15.00;99.90
6429;DHT22;3247;48.946;10.220;2023-03-14T09:37:48;14.80;99.90
6429;DHT22;3247;48.946;10.220;2023-03-14T09:40:15;14.50;99.90
6429;DHT22;3247;48.946;10.220;2023-03-14T09:42:41;14.20;99.90
6429;DHT22;3247;48.946;10.220;2023-03-14T09:45:11;14.10;99.90
6429;DHT22;3247;48.946;10.220;2023-03-14T09:47:37;14.00;99.90
6429;DHT22;3247;48.946;10.220;2023-03-14T09:50:15;14.00;99.90
6429;DHT22;3247;48.946;10.220;2023-03-14T09:52:43;14.10;99.90
6429;DHT22;3247;48.946;10.220;2023-03-14T09:55:12;14.20;99.90
6429;DHT22;3247;48.946;10.220;2023-03-14T09:57:39;14.40;99.90
6429;DHT22;3247;48.946;10.220;2023-03-14T10:00:05;14.60;99.90
6429;DHT22;3247;48.946;10.220;2023-03-14T10:02:39;14.50;99.90
6429;DHT22;3247;48.946;10.220;2023-03-14T10:05:07;14.30;99.90
6429;DHT22;3247;48.946;10.220;2023-03-14T10:07:33;14.20;99.90
6429;DHT22;3247;48.946;10.220;2023-03-14T10:09:59;14.00;99.90
6429;DHT22;3247;48.946;10.220;2023-03-14T10:12:31;14.00;99.90
6429;DHT22;3247;48.946;10.220;2023-03-14T10:15:00;13.80;99.90
6429;DHT22;3247;48.946;10.220;2023-03-14T10:17:26;13.80;99.90
6429;DHT22;3247;48.946;10.220;2023-03-14T10:19:55;13.60;99.90
6429;DHT22;3247;48.946;10.220;2023-03-14T10:22:21;13.40;99.90
6429;DHT22;3247;48.946;10.220;2023-03-14T10:24:49;13.30;99.90
6429;DHT22;3247;48.946;10.220;2023-03-14T10:27:18;13.30;99.90
6429;DHT22;3247;48.946;10.220;2023-03-14T10:29:51;13.40;99.90
6429;DHT22;3247;48.946;10.220;2023-03-14T10:32:20;13.40;99.90
6429;DHT22;3247;48.946;10.220;2023-03-14T10:34:46;13.40;99.90
6429;DHT22;3247;48.946;10.220;2023-03-14T10:37:28;13.40;99.90
6429;DHT22;3247;48.946;10.220;2023-03-14T10:39:54;13.40;99.90
6429;DHT22;3247;48.946;10.220;2023-03-14T10:42:30;13.40;99.90
6429;DHT22;3247;48.946;10.220;2023-03-14T10:44:58;13.40;99.90
6429;DHT22;3247;48.946;10.220;2023-03-14T10:47:25;14.20;99.90
6429;DHT22;3247;48.946;10.220;2023-03-14T10:49:53;13.60;99.90
6429;DHT22;3247;48.946;10.220;2023-03-14T10:52:28;13.50;99.90
6429;DHT22;3247;48.946;10.220;2023-03-14T10:54:56;13.50;99.90
6429;DHT22;3247;48.946;10.220;2023-03-14T10:57:22;13.50;99.90
6429;DHT22;3247;48.946;10.220;2023-03-14T10:59:47;13.50;99.90
6429;DHT22;3247;48.946;10.220;2023-03-14T11:07:18;13.90;99.90
6429;DHT22;3247;48.946;10.220;2023-03-14T11:09:50;14.20;99.90
6429;DHT22;3247;48.946;10.220;2023-03-14T11:14:55;14.40;99.90
6429;DHT22;3247;48.946;10.220;2023-03-14T11:17:30;14.40;99.90
6429;DHT22;3247;48.946;10.220;2023-03-14T11:20:17;14.30;99.90
6429;DHT22;3247;48.946;10.220;2023-03-14T11:25:19;14.10;99.90
6429;DHT22;3247;48.946;10.220;2023-03-14T11:30:25;13.80;99.90
6429;DHT22;3247;48.946;10.220;2023-03-14T11:33:02;13.90;99.90
6429;DHT22;3247;48.946;10.220;2023-03-14T11:35:44;14.00;99.90
6429;DHT22;3247;48.946;10.220;2023-03-14T11:40:37;14.20;99.90
6429;DHT22;3247;48.946;10.220;2023-03-14T11:43:15;14.10;99.90
6429;DHT22;3247;48.946;10.220;2023-03-14T11:45:42;14.20;99.90
6429;DHT22;3247;48.946;10.220;2023-03-14T11:48:26;14.10;99.90
6429;DHT22;3247;48.946;10.220;2023-03-14T11:50:57;14.20;99.90
6429;DHT22;3247;48.946;10.220;2023-03-14T11:55:48;14.40;99.90
6429;DHT22;3247;48.946;10.220;2023-03-14T12:01:12;14.00;99.90
6429;DHT22;3247;48.946;10.220;2023-03-14T12:03:46;13.80;99.90
6429;DHT22;3247;48.946;10.220;2023-03-14T12:08:56;13.50;99.90
6429;DHT22;3247;48.946;10.220;2023-03-14T12:11:32;13.30;99.90
6429;DHT22;3247;48.946;10.220;2023-03-14T12:13:58;13.20;99.90
6429;DHT22;3247;48.946;10.220;2023-03-14T12:16:27;13.20;99.90
6429;DHT22;3247;48.946;10.220;2023-03-14T12:18:52;13.10;99.90
6429;DHT22;3247;48.946;10.220;2023-03-14T12:21:18;13.00;99.90
6429;DHT22;3247;48.946;10.220;2023-03-14T12:28:49;12.60;99.90
6429;DHT22;3247;48.946;10.220;2023-03-14T12:34:00;12.20;99.90
6429;DHT22;3247;48.946;10.220;2023-03-14T12:39:29;11.80;99.90
6429;DHT22;3247;48.946;10.220;2023-03-14T12:46:56;11.30;99.90
6429;DHT22;3247;48.946;10.220;2023-03-14T12:49:23;11.30;99.90
6429;DHT22;3247;48.946;10.220;2023-03-14T12:51:58;11.30;99.90
6429;DHT22;3247;48.946;10.220;2023-03-14T12:59:46;11.30;99.90
6429;DHT22;3247;48.946;10.220;2023-03-14T13:04:48;11.30;99.90
6429;DHT22;3247;48.946;10.220;2023-03-14T13:07:34;11.20;99.90
6429;DHT22;3247;48.946;10.220;2023-03-14T13:15:22;10.90;99.90
6429;DHT22;3247;48.946;10.220;2023-03-14T13:17:49;11.00;99.90
6429;DHT22;3247;48.946;10.220;2023-03-14T13:23:19;11.30;99.90
6429;DHT22;3247;48.946;10.220;2023-03-14T13:25:45;11.40;99.90
6429;DHT22;3247;48.946;10.220;2023-03-14T13:28:11;11.50;99.90
6429;DHT22;3247;48.946;10.220;2023-03-14T13:30:40;11.50;99.90
6429;DHT22;3247;48.946;10.220;2023-03-14T13:33:11;11.40;99.90
6429;DHT22;3247;48.946;10.220;2023-03-14T13:35:41;11.20;99.90
6429;DHT22;3247;48.946;10.220;2023-03-14T13:38:21;11.00;99.90
6429;DHT22;3247;48.946;10.220;2023-03-14T13:40:48;10.80;99.90
6429;DHT22;3247;48.946;10.220;2023-03-14T13:45:47;10.60;99.90
6429;DHT22;3247;48.946;10.220;2023-03-14T13:48:14;10.50;99.90
6429;DHT22;3247;48.946;10.220;2023-03-14T13:50:44;10.40;99.90
6429;DHT22;3247;48.946;10.220;2023-03-14T13:53:11;10.10;99.90
6429;DHT22;3247;48.946;10.220;2023-03-14T13:55:36;9.70;99.90
6429;DHT22;3247;48.946;10.220;2023-03-14T13:58:02;9.50;99.90
6429;DHT22;3247;48.946;10.220;2023-03-14T14:00:27;9.30;99.90
6429;DHT22;3247;48.946;10.220;2023-03-14T14:02:56;9.00;99.90
6429;DHT22;3247;48.946;10.220;2023-03-14T14:05:23;8.90;99.90
6429;DHT22;3247;48.946;10.220;2023-03-14T14:07:50;8.90;99.90
6429;DHT22;3247;48.946;10.220;2023-03-14T14:10:17;8.80;99.90
6429;DHT22;3247;48.946;10.220;2023-03-14T14:13:02;8.90;99.90
6429;DHT22;3247;48.946;10.220;2023-03-14T14:15:29;8.80;99.90
6429;DHT22;3247;48.946;10.220;2023-03-14T14:18:06;8.90;99.90
6429;DHT22;3247;48.946;10.220;2023-03-14T14:20:43;8.90;99.90
6429;DHT22;3247;48.946;10.220;2023-03-14T14:23:10;9.00;99.90
6429;DHT22;3247;48.946;10.220;2023-03-14T14:25:36;9.00;99.90
6429;DHT22;3247;48.946;10.220;2023-03-14T14:28:14;9.10;99.90
6429;DHT22;3247;48.946;10.220;2023-03-14T14:30:39;9.10;99.90
6429;DHT22;3247;48.946;10.220;2023-03-14T14:35:57;9.00;99.90
6429;DHT22;3247;48.946;10.220;2023-03-14T14:38:23;8.90;99.90
6429;DHT22;3247;48.946;10.220;2023-03-14T14:40:50;8.90;99.90
6429;DHT22;3247;48.946;10.220;2023-03-14T14:43:17;8.80;99.90
6429;DHT22;3247;48.946;10.220;2023-03-14T14:45:43;8.80;99.90
6429;DHT22;3247;48.946;10.220;2023-03-14T14:48:10;8.70;99.90
6429;DHT22;3247;48.946;10.220;2023-03-14T14:51:09;8.70;99.90
6429;DHT22;3247;48.946;10.220;2023-03-14T14:53:35;8.70;99.90
6429;DHT22;3247;48.946;10.220;2023-03-14T14:56:16;8.60;99.90
6429;DHT22;3247;48.946;10.220;2023-03-14T14:58:43;8.50;99.90
6429;DHT22;3247;48.946;10.220;2023-03-14T15:01:15;8.50;99.90
6429;DHT22;3247;48.946;10.220;2023-03-14T15:03:42;8.50;99.90
6429;DHT22;3247;48.946;10.220;2023-03-14T15:06:08;8.40;99.90
6429;DHT22;3247;48.946;10.220;2023-03-14T15:08:34;8.40;99.90
6429;DHT22;3247;48.946;10.220;2023-03-14T15:10:59;8.20;99.90
6429;DHT22;3247;48.946;10.220;2023-03-14T15:13:24;8.20;99.90
6429;DHT22;3247;48.946;10.220;2023-03-14T15:15:50;8.10;99.90
6429;DHT22;3247;48.946;10.220;2023-03-14T15:18:21;8.10;99.90
6429;DHT22;3247;48.946;10.220;2023-03-14T15:20:47;8.00;99.90
6429;DHT22;3247;48.946;10.220;2023-03-14T15:23:15;8.00;99.90
6429;DHT22;3247;48.946;10.220;2023-03-14T15:25:41;8.10;99.90
6429;DHT22;3247;48.946;10.220;2023-03-14T15:28:31;8.00;99.90
6429;DHT22;3247;48.946;10.220;2023-03-14T15:30:56;8.10;99.90
6429;DHT22;3247;48.946;10.220;2023-03-14T15:33:22;8.20;99.90
6429;DHT22;3247;48.946;10.220;2023-03-14T15:35:48;8.20;99.90
6429;DHT22;3247;48.946;10.220;2023-03-14T15:38:15;9.00;99.90
6429;DHT22;3247;48.946;10.220;2023-03-14T15:40:41;8.20;99.90
6429;DHT22;3247;48.946;10.220;2023-03-14T15:43:07;8.10;99.90
6429;DHT22;3247;48.946;10.220;2023-03-14T15:45:34;8.00;99.90
6429;DHT22;3247;48.946;10.220;2023-03-14T15:47:59;7.90;99.90
6429;DHT22;3247;48.946;10.220;2023-03-14T15:50:25;7.90;99.90
6429;DHT22;3247;48.946;10.220;2023-03-14T15:52:51;7.70;99.90
6429;DHT22;3247;48.946;10.220;2023-03-14T15:55:17;7.70;99.90
6429;DHT22;3247;48.946;10.220;2023-03-14T15:57:42;7.60;99.90
6429;DHT22;3247;48.946;10.220;2023-03-14T16:00:18;7.60;99.90
6429;DHT22;3247;48.946;10.220;2023-03-14T16:02:44;7.50;99.90
6429;DHT22;3247;48.946;10.220;2023-03-14T16:05:10;7.40;99.90
6429;DHT22;3247;48.946;10.220;2023-03-14T16:07:36;7.40;99.90
6429;DHT22;3247;48.946;10.220;2023-03-14T16:10:02;7.40;99.90
6429;DHT22;3247;48.946;10.220;2023-03-14T16:12:28;7.30;99.90
6429;DHT22;3247;48.946;10.220;2023-03-14T16:14:54;7.30;99.90
6429;DHT22;3247;48.946;10.220;2023-03-14T16:17:19;7.40;99.90
6429;DHT22;3247;48.946;10.220;2023-03-14T16:19:50;7.30;99.90
6429;DHT22;3247;48.946;10.220;2023-03-14T16:22:16;7.40;99.90
6429;DHT22;3247;48.946;10.220;2023-03-14T16:24:41;7.30;99.90
6429;DHT22;3247;48.946;10.220;2023-03-14T16:27:07;7.30;99.90
6429;DHT22;3247;48.946;10.220;2023-03-14T16:29:32;7.30;99.90
6429;DHT22;3247;48.946;10.220;2023-03-14T16:31:58;7.20;99.90
6429;DHT22;3247;48.946;10.220;2023-03-14T16:34:23;7.20;99.90
6429;DHT22;3247;48.946;10.220;2023-03-14T16:36:49;7.90;99.90
6429;DHT22;3247;48.946;10.220;2023-03-14T16:39:19;7.20;99.90
6429;DHT22;3247;48.946;10.220;2023-03-14T16:41:44;7.20;99.90
6429;DHT22;3247;48.946;10.220;2023-03-14T16:44:10;7.10;99.90
6429;DHT22;3247;48.946;10.220;2023-03-14T16:46:37;7.10;99.90
6429;DHT22;3247;48.946;10.220;2023-03-14T16:49:03;7.00;99.90
6429;DHT22;3247;48.946;10.220;2023-03-14T16:51:29;7.00;99.90
6429;DHT22;3247;48.946;10.220;2023-03-14T16:53:54;7.00;99.90
6429;DHT22;3247;48.946;10.220;2023-03-14T16:56:20;6.90;99.90
6429;DHT22;3247;48.946;10.220;2023-03-14T16:58:45;6.80;99.90
6429;DHT22;3247;48.946;10.220;2023-03-14T17:01:12;6.80;99.90
6429;DHT22;3247;48.946;10.220;2023-03-14T17:03:38;6.70;99.90
6429;DHT22;3247;48.946;10.220;2023-03-14T17:06:04;6.60;99.90
6429;DHT22;3247;48.946;10.220;2023-03-14T17:08:30;6.50;99.90
6429;DHT22;3247;48.946;10.220;2023-03-14T17:10:55;6.40;99.90